sensor_id;sensor_type;location;lat;lon;timestamp;pressure;altitude;pressure_sealevel;temperature;humidity
13690;BME280;6917;52.194;9.894;2022-12-17T00:00:52;100975.91;;;-4.62;100.00
13690;BME280;6917;52.194;9.894;2022-12-17T00:03:36;100970.94;;;-4.71;100.00
13690;BME280;6917;52.194;9.894;2022-12-17T00:06:21;100960.69;;;-4.68;100.00
13690;BME280;6917;52.194;9.894;2022-12-17T00:09:05;100961.94;;;-4.64;100.00
13690;BME280;6917;52.194;9.894;2022-12-17T00:11:49;100968.47;;;-4.73;100.00
13690;BME280;6917;52.194;9.894;2022-12-17T00:14:34;100970.34;;;-4.67;100.00
13690;BME280;6917;52.194;9.894;2022-12-17T00:17:18;100978.13;;;-4.65;100.00
13690;BME280;6917;52.194;9.894;2022-12-17T00:20:02;100973.88;;;-4.53;100.00
13690;BME280;6917;52.194;9.894;2022-12-17T00:22:45;100978.69;;;-4.29;100.00
13690;BME280;6917;52.194;9.894;2022-12-17T00:25:29;100983.00;;;-4.28;100.00
13690;BME280;6917;52.194;9.894;2022-12-17T00:28:13;100978.81;;;-4.50;100.00
13690;BME280;6917;52.194;9.894;2022-12-17T00:30:57;100986.44;;;-4.40;100.00
13690;BME280;6917;52.194;9.894;2022-12-17T00:33:41;100985.84;;;-4.42;100.00
13690;BME280;6917;52.194;9.894;2022-12-17T00:36:25;100992.97;;;-4.50;100.00
13690;BME280;6917;52.194;9.894;2022-12-17T00:39:09;100996.91;;;-4.45;100.00
13690;BME280;6917;52.194;9.894;2022-12-17T00:41:53;101005.88;;;-4.53;100.00
13690;BME280;6917;52.194;9.894;2022-12-17T00:44:37;100997.41;;;-4.63;100.00
13690;BME280;6917;52.194;9.894;2022-12-17T00:47:31;100998.06;;;-4.61;100.00
13690;BME280;6917;52.194;9.894;2022-12-17T00:50:15;100999.50;;;-4.59;100.00
13690;BME280;6917;52.194;9.894;2022-12-17T00:52:59;101001.28;;;-4.72;100.00
13690;BME280;6917;52.194;9.894;2022-12-17T00:55:43;101001.97;;;-4.57;100.00
13690;BME280;6917;52.194;9.894;2022-12-17T00:58:27;101005.47;;;-4.50;100.00
13690;BME280;6917;52.194;9.894;2022-12-17T01:01:11;101007.22;;;-4.29;100.00
13690;BME280;6917;52.194;9.894;2022-12-17T01:03:55;101006.94;;;-4.47;100.00
13690;BME280;6917;52.194;9.894;2022-12-17T01:06:39;101011.16;;;-4.66;100.00
13690;BME280;6917;52.194;9.894;2022-12-17T01:09:23;101015.06;;;-4.97;100.00
13690;BME280;6917;52.194;9.894;2022-12-17T01:12:07;101016.19;;;-4.85;100.00
13690;BME280;6917;52.194;9.894;2022-12-17T01:14:50;101018.63;;;-4.90;100.00
13690;BME280;6917;52.194;9.894;2022-12-17T01:17:34;101021.19;;;-5.03;100.00
13690;BME280;6917;52.194;9.894;2022-12-17T01:20:18;101024.44;;;-5.07;100.00
13690;BME280;6917;52.194;9.894;2022-12-17T01:23:06;101025.19;;;-5.20;100.00
13690;BME280;6917;52.194;9.894;2022-12-17T01:25:54;101036.78;;;-5.28;100.00
13690;BME280;6917;52.194;9.894;2022-12-17T01:28:39;101045.56;;;-5.34;100.00
13690;BME280;6917;52.194;9.894;2022-12-17T01:31:23;101048.34;;;-5.42;100.00
13690;BME280;6917;52.194;9.894;2022-12-17T01:34:07;101047.53;;;-5.43;100.00
13690;BME280;6917;52.194;9.894;2022-12-17T01:36:51;101047.56;;;-5.36;100.00
13690;BME280;6917;52.194;9.894;2022-12-17T01:39:35;101057.88;;;-5.26;100.00
13690;BME280;6917;52.194;9.894;2022-12-17T01:42:19;101054.47;;;-5.20;100.00
13690;BME280;6917;52.194;9.894;2022-12-17T01:45:03;101054.50;;;-5.14;100.00
13690;BME280;6917;52.194;9.894;2022-12-17T01:48:00;101054.53;;;-5.07;100.00
13690;BME280;6917;52.194;9.894;2022-12-17T01:50:52;101057.88;;;-5.05;100.00
13690;BME280;6917;52.194;9.894;2022-12-17T01:53:41;101053.50;;;-5.13;100.00
13690;BME280;6917;52.194;9.894;2022-12-17T01:56:25;101053.47;;;-5.19;100.00
13690;BME280;6917;52.194;9.894;2022-12-17T01:59:11;101053.59;;;-5.27;100.00
13690;BME280;6917;52.194;9.894;2022-12-17T02:01:55;101061.44;;;-5.19;100.00
13690;BME280;6917;52.194;9.894;2022-12-17T02:04:39;101059.69;;;-5.33;100.00
13690;BME280;6917;52.194;9.894;2022-12-17T02:11:00;101061.38;;;-5.26;100.00
13690;BME280;6917;52.194;9.894;2022-12-17T02:14:04;101055.44;;;-5.00;100.00
13690;BME280;6917;52.194;9.894;2022-12-17T02:16:54;101057.09;;;-4.92;100.00
13690;BME280;6917;52.194;9.894;2022-12-17T02:22:52;101075.59;;;-4.91;100.00
13690;BME280;6917;52.194;9.894;2022-12-17T02:25:53;101066.88;;;-5.06;100.00
13690;BME280;6917;52.194;9.894;2022-12-17T02:28:42;101066.47;;;-5.52;100.00
13690;BME280;6917;52.194;9.894;2022-12-17T02:31:28;101076.94;;;-5.72;100.00
13690;BME280;6917;52.194;9.894;2022-12-17T02:34:13;101087.75;;;-5.74;100.00
13690;BME280;6917;52.194;9.894;2022-12-17T02:36:57;101089.97;;;-5.56;100.00
13690;BME280;6917;52.194;9.894;2022-12-17T02:39:41;101093.91;;;-5.73;100.00
13690;BME280;6917;52.194;9.894;2022-12-17T02:42:27;101091.09;;;-5.65;100.00
13690;BME280;6917;52.194;9.894;2022-12-17T02:45:12;101088.91;;;-5.61;100.00
13690;BME280;6917;52.194;9.894;2022-12-17T02:47:58;101087.06;;;-5.40;100.00
13690;BME280;6917;52.194;9.894;2022-12-17T02:50:42;101098.34;;;-5.38;100.00
13690;BME280;6917;52.194;9.894;2022-12-17T02:53:26;101099.84;;;-5.50;100.00
13690;BME280;6917;52.194;9.894;2022-12-17T02:56:10;101100.31;;;-5.25;100.00
13690;BME280;6917;52.194;9.894;2022-12-17T02:58:54;101106.19;;;-5.08;100.00
13690;BME280;6917;52.194;9.894;2022-12-17T03:01:38;101100.97;;;-4.95;100.00
13690;BME280;6917;52.194;9.894;2022-12-17T03:04:22;101102.59;;;-4.94;100.00
13690;BME280;6917;52.194;9.894;2022-12-17T03:07:06;101103.63;;;-4.95;100.00
13690;BME280;6917;52.194;9.894;2022-12-17T03:09:50;101103.91;;;-5.11;100.00
13690;BME280;6917;52.194;9.894;2022-12-17T03:12:34;101106.84;;;-5.06;100.00
13690;BME280;6917;52.194;9.894;2022-12-17T03:15:18;101105.34;;;-5.09;100.00
13690;BME280;6917;52.194;9.894;2022-12-17T03:18:02;101116.59;;;-5.56;100.00
13690;BME280;6917;52.194;9.894;2022-12-17T03:20:46;101102.13;;;-5.25;100.00
13690;BME280;6917;52.194;9.894;2022-12-17T03:23:30;101119.38;;;-5.21;100.00
13690;BME280;6917;52.194;9.894;2022-12-17T03:26:14;101121.41;;;-5.23;100.00
13690;BME280;6917;52.194;9.894;2022-12-17T03:28:58;101116.44;;;-5.33;100.00
13690;BME280;6917;52.194;9.894;2022-12-17T03:31:42;101133.59;;;-5.57;100.00
13690;BME280;6917;52.194;9.894;2022-12-17T03:34:26;101138.41;;;-5.46;100.00
13690;BME280;6917;52.194;9.894;2022-12-17T03:37:10;101135.25;;;-5.34;100.00
13690;BME280;6917;52.194;9.894;2022-12-17T03:39:54;101143.41;;;-5.36;100.00
13690;BME280;6917;52.194;9.894;2022-12-17T03:42:38;101134.34;;;-5.42;100.00
13690;BME280;6917;52.194;9.894;2022-12-17T03:45:22;101141.81;;;-5.52;100.00
13690;BME280;6917;52.194;9.894;2022-12-17T03:48:11;101143.16;;;-5.62;100.00
13690;BME280;6917;52.194;9.894;2022-12-17T03:50:55;101135.47;;;-5.51;100.00
13690;BME280;6917;52.194;9.894;2022-12-17T03:53:40;101141.06;;;-5.46;100.00
13690;BME280;6917;52.194;9.894;2022-12-17T03:56:24;101144.19;;;-5.42;100.00
13690;BME280;6917;52.194;9.894;2022-12-17T03:59:08;101140.06;;;-5.45;100.00
13690;BME280;6917;52.194;9.894;2022-12-17T04:01:52;101143.50;;;-5.65;100.00
13690;BME280;6917;52.194;9.894;2022-12-17T04:04:35;101155.44;;;-5.61;100.00
13690;BME280;6917;52.194;9.894;2022-12-17T04:07:19;101154.00;;;-5.43;100.00
13690;BME280;6917;52.194;9.894;2022-12-17T04:10:04;101142.53;;;-5.43;100.00
13690;BME280;6917;52.194;9.894;2022-12-17T04:12:48;101142.72;;;-5.45;100.00
13690;BME280;6917;52.194;9.894;2022-12-17T04:15:32;101143.59;;;-5.59;100.00
13690;BME280;6917;52.194;9.894;2022-12-17T04:18:16;101147.91;;;-5.58;100.00
13690;BME280;6917;52.194;9.894;2022-12-17T04:20:59;101153.28;;;-5.51;100.00
13690;BME280;6917;52.194;9.894;2022-12-17T04:23:44;101140.88;;;-5.44;100.00
13690;BME280;6917;52.194;9.894;2022-12-17T04:26:27;101147.41;;;-5.47;100.00
13690;BME280;6917;52.194;9.894;2022-12-17T04:29:11;101147.91;;;-5.58;100.00
13690;BME280;6917;52.194;9.894;2022-12-17T04:31:55;101156.72;;;-5.57;100.00
13690;BME280;6917;52.194;9.894;2022-12-17T04:34:39;101160.78;;;-5.61;100.00
13690;BME280;6917;52.194;9.894;2022-12-17T04:37:23;101164.25;;;-5.61;100.00
13690;BME280;6917;52.194;9.894;2022-12-17T04:40:09;101169.38;;;-5.59;100.00
13690;BME280;6917;52.194;9.894;2022-12-17T04:42:53;101173.88;;;-5.60;100.00
13690;BME280;6917;52.194;9.894;2022-12-17T04:45:37;101169.78;;;-5.62;100.00
13690;BME280;6917;52.194;9.894;2022-12-17T04:48:21;101171.06;;;-5.73;100.00
13690;BME280;6917;52.194;9.894;2022-12-17T04:51:05;101174.59;;;-5.87;100.00
13690;BME280;6917;52.194;9.894;2022-12-17T04:53:49;101176.22;;;-5.86;100.00
13690;BME280;6917;52.194;9.894;2022-12-17T04:56:40;101173.00;;;-5.82;100.00
13690;BME280;6917;52.194;9.894;2022-12-17T04:59:24;101172.72;;;-5.72;100.00
13690;BME280;6917;52.194;9.894;2022-12-17T05:02:08;101176.66;;;-5.68;100.00
13690;BME280;6917;52.194;9.894;2022-12-17T05:04:52;101170.25;;;-5.74;100.00
13690;BME280;6917;52.194;9.894;2022-12-17T05:07:36;101169.31;;;-5.81;100.00
13690;BME280;6917;52.194;9.894;2022-12-17T05:10:20;101170.44;;;-5.75;100.00
13690;BME280;6917;52.194;9.894;2022-12-17T05:13:04;101171.59;;;-5.63;100.00
13690;BME280;6917;52.194;9.894;2022-12-17T05:15:54;101186.63;;;-5.55;100.00
13690;BME280;6917;52.194;9.894;2022-12-17T05:18:38;101182.53;;;-5.73;100.00
13690;BME280;6917;52.194;9.894;2022-12-17T05:21:22;101182.44;;;-6.15;100.00
13690;BME280;6917;52.194;9.894;2022-12-17T05:24:06;101188.50;;;-6.36;100.00
13690;BME280;6917;52.194;9.894;2022-12-17T05:26:50;101189.19;;;-6.42;100.00
13690;BME280;6917;52.194;9.894;2022-12-17T05:29:34;101195.59;;;-6.37;100.00
13690;BME280;6917;52.194;9.894;2022-12-17T05:32:17;101195.34;;;-6.27;100.00
13690;BME280;6917;52.194;9.894;2022-12-17T05:35:01;101205.25;;;-6.36;100.00
13690;BME280;6917;52.194;9.894;2022-12-17T05:37:45;101200.00;;;-6.44;100.00
13690;BME280;6917;52.194;9.894;2022-12-17T05:40:29;101202.47;;;-6.42;100.00
13690;BME280;6917;52.194;9.894;2022-12-17T05:43:13;101203.25;;;-6.34;100.00
13690;BME280;6917;52.194;9.894;2022-12-17T05:45:57;101203.97;;;-6.25;100.00
13690;BME280;6917;52.194;9.894;2022-12-17T05:48:41;101200.97;;;-6.07;100.00
13690;BME280;6917;52.194;9.894;2022-12-17T05:51:25;101219.47;;;-5.99;100.00
13690;BME280;6917;52.194;9.894;2022-12-17T05:54:09;101210.03;;;-6.02;100.00
13690;BME280;6917;52.194;9.894;2022-12-17T05:56:53;101215.72;;;-6.05;100.00
13690;BME280;6917;52.194;9.894;2022-12-17T05:59:37;101213.69;;;-6.17;100.00
13690;BME280;6917;52.194;9.894;2022-12-17T06:02:22;101221.28;;;-6.29;100.00
13690;BME280;6917;52.194;9.894;2022-12-17T06:05:06;101224.81;;;-6.51;100.00
13690;BME280;6917;52.194;9.894;2022-12-17T06:07:50;101227.09;;;-6.63;100.00
13690;BME280;6917;52.194;9.894;2022-12-17T06:10:34;101229.06;;;-6.80;100.00
13690;BME280;6917;52.194;9.894;2022-12-17T06:13:18;101230.19;;;-6.97;100.00
13690;BME280;6917;52.194;9.894;2022-12-17T06:16:02;101246.00;;;-7.04;100.00
13690;BME280;6917;52.194;9.894;2022-12-17T06:18:46;101245.06;;;-7.11;100.00
13690;BME280;6917;52.194;9.894;2022-12-17T06:21:30;101244.41;;;-7.13;100.00
13690;BME280;6917;52.194;9.894;2022-12-17T06:24:14;101246.56;;;-7.08;100.00
13690;BME280;6917;52.194;9.894;2022-12-17T06:26:58;101251.19;;;-7.10;100.00
13690;BME280;6917;52.194;9.894;2022-12-17T06:29:42;101260.75;;;-7.01;100.00
13690;BME280;6917;52.194;9.894;2022-12-17T06:32:46;101258.53;;;-6.90;100.00
13690;BME280;6917;52.194;9.894;2022-12-17T06:35:29;101254.03;;;-6.89;100.00
13690;BME280;6917;52.194;9.894;2022-12-17T06:38:14;101251.38;;;-6.89;100.00
13690;BME280;6917;52.194;9.894;2022-12-17T06:41:01;101260.06;;;-6.72;100.00
13690;BME280;6917;52.194;9.894;2022-12-17T06:43:45;101255.44;;;-6.55;100.00
13690;BME280;6917;52.194;9.894;2022-12-17T06:46:29;101255.47;;;-6.41;100.00
13690;BME280;6917;52.194;9.894;2022-12-17T06:49:13;101258.25;;;-6.34;100.00
13690;BME280;6917;52.194;9.894;2022-12-17T06:51:57;101260.25;;;-6.36;100.00
13690;BME280;6917;52.194;9.894;2022-12-17T06:54:41;101259.22;;;-6.50;100.00
13690;BME280;6917;52.194;9.894;2022-12-17T06:57:25;101264.34;;;-6.48;100.00
13690;BME280;6917;52.194;9.894;2022-12-17T07:00:10;101279.94;;;-6.45;100.00
13690;BME280;6917;52.194;9.894;2022-12-17T07:02:55;101283.88;;;-6.41;100.00
13690;BME280;6917;52.194;9.894;2022-12-17T07:05:39;101288.41;;;-6.27;100.00
13690;BME280;6917;52.194;9.894;2022-12-17T07:08:23;101299.25;;;-6.14;100.00
13690;BME280;6917;52.194;9.894;2022-12-17T07:11:06;101305.56;;;-6.15;100.00
13690;BME280;6917;52.194;9.894;2022-12-17T07:13:50;101311.06;;;-6.16;100.00
13690;BME280;6917;52.194;9.894;2022-12-17T07:16:34;101311.91;;;-6.16;100.00
13690;BME280;6917;52.194;9.894;2022-12-17T07:19:18;101317.31;;;-6.09;100.00
13690;BME280;6917;52.194;9.894;2022-12-17T07:22:02;101324.41;;;-6.02;100.00
13690;BME280;6917;52.194;9.894;2022-12-17T07:24:46;101325.22;;;-6.01;100.00
13690;BME280;6917;52.194;9.894;2022-12-17T07:27:30;101327.69;;;-6.00;100.00
13690;BME280;6917;52.194;9.894;2022-12-17T07:30:14;101320.06;;;-5.88;100.00
13690;BME280;6917;52.194;9.894;2022-12-17T07:33:04;101325.66;;;-5.68;100.00
13690;BME280;6917;52.194;9.894;2022-12-17T07:35:50;101327.63;;;-5.62;100.00
13690;BME280;6917;52.194;9.894;2022-12-17T07:38:34;101335.88;;;-5.57;100.00
13690;BME280;6917;52.194;9.894;2022-12-17T07:41:18;101338.53;;;-5.57;100.00
13690;BME280;6917;52.194;9.894;2022-12-17T07:44:03;101345.63;;;-5.64;100.00
13690;BME280;6917;52.194;9.894;2022-12-17T07:46:46;101347.72;;;-5.59;100.00
13690;BME280;6917;52.194;9.894;2022-12-17T07:49:30;101345.69;;;-5.72;100.00
13690;BME280;6917;52.194;9.894;2022-12-17T07:52:14;101355.88;;;-5.76;100.00
13690;BME280;6917;52.194;9.894;2022-12-17T07:54:58;101347.25;;;-5.78;100.00
13690;BME280;6917;52.194;9.894;2022-12-17T07:57:42;101355.06;;;-5.61;100.00
13690;BME280;6917;52.194;9.894;2022-12-17T08:00:26;101357.16;;;-5.57;100.00
13690;BME280;6917;52.194;9.894;2022-12-17T08:03:10;101358.81;;;-5.56;100.00
13690;BME280;6917;52.194;9.894;2022-12-17T08:05:57;101369.19;;;-5.46;100.00
13690;BME280;6917;52.194;9.894;2022-12-17T08:08:41;101371.84;;;-5.31;100.00
13690;BME280;6917;52.194;9.894;2022-12-17T08:11:26;101364.31;;;-5.13;100.00
13690;BME280;6917;52.194;9.894;2022-12-17T08:14:09;101364.69;;;-5.16;100.00
13690;BME280;6917;52.194;9.894;2022-12-17T08:16:53;101373.94;;;-5.12;100.00
13690;BME280;6917;52.194;9.894;2022-12-17T08:19:37;101374.88;;;-5.05;100.00
13690;BME280;6917;52.194;9.894;2022-12-17T08:22:21;101378.81;;;-5.01;100.00
13690;BME280;6917;52.194;9.894;2022-12-17T08:25:05;101374.03;;;-5.05;100.00
13690;BME280;6917;52.194;9.894;2022-12-17T08:27:57;101378.56;;;-5.06;100.00
13690;BME280;6917;52.194;9.894;2022-12-17T08:30:41;101382.66;;;-5.03;100.00
13690;BME280;6917;52.194;9.894;2022-12-17T08:33:25;101398.09;;;-4.99;100.00
13690;BME280;6917;52.194;9.894;2022-12-17T08:36:09;101403.84;;;-4.81;100.00
13690;BME280;6917;52.194;9.894;2022-12-17T08:38:53;101402.34;;;-4.68;100.00
13690;BME280;6917;52.194;9.894;2022-12-17T08:41:37;101400.25;;;-4.73;100.00
13690;BME280;6917;52.194;9.894;2022-12-17T08:44:21;101402.72;;;-4.71;100.00
13690;BME280;6917;52.194;9.894;2022-12-17T08:47:05;101401.56;;;-4.84;100.00
13690;BME280;6917;52.194;9.894;2022-12-17T08:49:49;101411.16;;;-4.68;100.00
13690;BME280;6917;52.194;9.894;2022-12-17T08:52:32;101403.75;;;-4.51;100.00
13690;BME280;6917;52.194;9.894;2022-12-17T08:55:16;101403.28;;;-4.40;100.00
13690;BME280;6917;52.194;9.894;2022-12-17T08:58:00;101398.56;;;-4.38;100.00
13690;BME280;6917;52.194;9.894;2022-12-17T09:00:44;101403.84;;;-4.44;100.00
13690;BME280;6917;52.194;9.894;2022-12-17T09:03:28;101400.41;;;-4.60;100.00
13690;BME280;6917;52.194;9.894;2022-12-17T09:06:12;101395.06;;;-4.60;100.00
13690;BME280;6917;52.194;9.894;2022-12-17T09:08:56;101399.19;;;-4.57;100.00
13690;BME280;6917;52.194;9.894;2022-12-17T09:11:41;101405.06;;;-4.47;100.00
13690;BME280;6917;52.194;9.894;2022-12-17T09:14:25;101409.00;;;-4.43;100.00
13690;BME280;6917;52.194;9.894;2022-12-17T09:17:09;101396.09;;;-4.39;100.00
13690;BME280;6917;52.194;9.894;2022-12-17T09:19:53;101415.16;;;-4.21;100.00
13690;BME280;6917;52.194;9.894;2022-12-17T09:22:37;101411.84;;;-4.23;100.00
13690;BME280;6917;52.194;9.894;2022-12-17T09:25:21;101412.94;;;-4.17;100.00
13690;BME280;6917;52.194;9.894;2022-12-17T09:28:05;101415.44;;;-4.16;100.00
13690;BME280;6917;52.194;9.894;2022-12-17T09:30:49;101419.78;;;-4.08;100.00
13690;BME280;6917;52.194;9.894;2022-12-17T09:33:33;101419.78;;;-4.08;100.00
13690;BME280;6917;52.194;9.894;2022-12-17T09:36:17;101414.06;;;-4.05;100.00
13690;BME280;6917;52.194;9.894;2022-12-17T09:39:01;101422.16;;;-3.99;100.00
13690;BME280;6917;52.194;9.894;2022-12-17T09:45:07;101426.16;;;-3.88;100.00
13690;BME280;6917;52.194;9.894;2022-12-17T09:48:12;101426.41;;;-3.83;100.00
13690;BME280;6917;52.194;9.894;2022-12-17T09:50:59;101425.38;;;-3.82;100.00
13690;BME280;6917;52.194;9.894;2022-12-17T09:53:45;101430.13;;;-3.77;100.00
13690;BME280;6917;52.194;9.894;2022-12-17T09:56:31;101435.56;;;-3.64;100.00
13690;BME280;6917;52.194;9.894;2022-12-17T09:59:21;101436.19;;;-3.62;100.00
13690;BME280;6917;52.194;9.894;2022-12-17T10:02:18;101446.53;;;-3.59;100.00
13690;BME280;6917;52.194;9.894;2022-12-17T10:05:05;101446.16;;;-3.49;100.00
13690;BME280;6917;52.194;9.894;2022-12-17T10:07:51;101449.22;;;-3.52;100.00
13690;BME280;6917;52.194;9.894;2022-12-17T10:10:42;101453.16;;;-3.48;100.00
13690;BME280;6917;52.194;9.894;2022-12-17T10:13:26;101462.28;;;-3.36;100.00
13690;BME280;6917;52.194;9.894;2022-12-17T10:16:24;101448.72;;;-3.35;100.00
13690;BME280;6917;52.194;9.894;2022-12-17T10:19:14;101457.22;;;-3.31;100.00
13690;BME280;6917;52.194;9.894;2022-12-17T10:22:12;101460.72;;;-3.24;100.00
13690;BME280;6917;52.194;9.894;2022-12-17T10:25:01;101460.81;;;-3.11;100.00
13690;BME280;6917;52.194;9.894;2022-12-17T10:27:45;101461.88;;;-3.05;100.00
13690;BME280;6917;52.194;9.894;2022-12-17T10:30:30;101455.75;;;-2.99;100.00
13690;BME280;6917;52.194;9.894;2022-12-17T10:33:17;101455.56;;;-2.97;100.00
13690;BME280;6917;52.194;9.894;2022-12-17T10:36:03;101465.06;;;-2.88;100.00
13690;BME280;6917;52.194;9.894;2022-12-17T10:38:53;101456.81;;;-2.93;100.00
13690;BME280;6917;52.194;9.894;2022-12-17T10:41:41;101459.06;;;-2.90;100.00
13690;BME280;6917;52.194;9.894;2022-12-17T10:44:29;101462.81;;;-2.85;100.00
13690;BME280;6917;52.194;9.894;2022-12-17T10:47:18;101466.59;;;-2.73;100.00
13690;BME280;6917;52.194;9.894;2022-12-17T10:50:09;101462.06;;;-2.72;100.00
13690;BME280;6917;52.194;9.894;2022-12-17T10:52:53;101462.06;;;-2.72;100.00
13690;BME280;6917;52.194;9.894;2022-12-17T10:55:47;101453.25;;;-2.66;100.00
13690;BME280;6917;52.194;9.894;2022-12-17T10:58:31;101455.16;;;-2.47;100.00
13690;BME280;6917;52.194;9.894;2022-12-17T11:01:23;101461.78;;;-2.36;100.00
13690;BME280;6917;52.194;9.894;2022-12-17T11:04:37;101469.56;;;-2.48;100.00
13690;BME280;6917;52.194;9.894;2022-12-17T11:10:18;101473.16;;;-2.21;100.00
13690;BME280;6917;52.194;9.894;2022-12-17T11:13:07;101469.06;;;-2.17;100.00
13690;BME280;6917;52.194;9.894;2022-12-17T11:15:53;101472.56;;;-2.10;100.00
13690;BME280;6917;52.194;9.894;2022-12-17T11:21:28;101474.81;;;-2.13;100.00
13690;BME280;6917;52.194;9.894;2022-12-17T11:24:22;101487.44;;;-1.87;100.00
13690;BME280;6917;52.194;9.894;2022-12-17T11:27:11;101479.19;;;-1.99;100.00
13690;BME280;6917;52.194;9.894;2022-12-17T11:29:57;101483.06;;;-2.08;100.00
13690;BME280;6917;52.194;9.894;2022-12-17T11:33:14;101486.16;;;-2.04;100.00
13690;BME280;6917;52.194;9.894;2022-12-17T11:36:10;101484.75;;;-1.94;100.00
13690;BME280;6917;52.194;9.894;2022-12-17T11:39:05;101477.97;;;-1.76;100.00
13690;BME280;6917;52.194;9.894;2022-12-17T11:42:06;101482.31;;;-1.62;100.00
13690;BME280;6917;52.194;9.894;2022-12-17T11:48:20;101478.19;;;-1.65;100.00
13690;BME280;6917;52.194;9.894;2022-12-17T11:51:15;101481.06;;;-1.66;100.00
13690;BME280;6917;52.194;9.894;2022-12-17T11:54:11;101483.16;;;-1.55;100.00
13690;BME280;6917;52.194;9.894;2022-12-17T12:00:01;101489.75;;;-1.44;100.00
13690;BME280;6917;52.194;9.894;2022-12-17T12:05:58;101479.22;;;-1.46;100.00
13690;BME280;6917;52.194;9.894;2022-12-17T12:09:05;101488.09;;;-1.39;100.00
13690;BME280;6917;52.194;9.894;2022-12-17T12:18:26;101477.97;;;-1.24;100.00
13690;BME280;6917;52.194;9.894;2022-12-17T12:21:33;101486.00;;;-0.97;100.00
13690;BME280;6917;52.194;9.894;2022-12-17T12:27:38;101493.53;;;-0.74;99.36
13690;BME280;6917;52.194;9.894;2022-12-17T12:30:28;101493.94;;;-0.57;98.54
13690;BME280;6917;52.194;9.894;2022-12-17T12:36:19;101486.75;;;-0.70;97.20
13690;BME280;6917;52.194;9.894;2022-12-17T12:39:10;101483.25;;;-0.71;97.12
13690;BME280;6917;52.194;9.894;2022-12-17T12:47:56;101496.63;;;-0.57;96.48
13690;BME280;6917;52.194;9.894;2022-12-17T12:53:38;101493.03;;;-0.45;96.37
13690;BME280;6917;52.194;9.894;2022-12-17T12:56:33;101492.47;;;-0.60;96.64
13690;BME280;6917;52.194;9.894;2022-12-17T12:59:26;101498.78;;;-0.35;96.29
13690;BME280;6917;52.194;9.894;2022-12-17T13:02:31;101507.44;;;-0.33;96.07
13690;BME280;6917;52.194;9.894;2022-12-17T13:10:30;101496.03;;;-0.21;95.92
13690;BME280;6917;52.194;9.894;2022-12-17T13:12:56;101488.56;;;-0.13;96.35
13690;BME280;6917;52.194;9.894;2022-12-17T13:15:31;101491.50;;;-0.21;95.51
13690;BME280;6917;52.194;9.894;2022-12-17T13:18:29;101494.03;;;-0.33;95.02
13690;BME280;6917;52.194;9.894;2022-12-17T13:21:00;101489.72;;;-0.40;95.41
13690;BME280;6917;52.194;9.894;2022-12-17T13:23:29;101495.97;;;-0.53;95.41
13690;BME280;6917;52.194;9.894;2022-12-17T13:28:39;101503.66;;;-0.70;96.47
13690;BME280;6917;52.194;9.894;2022-12-17T13:31:14;101500.38;;;-0.78;96.95
13690;BME280;6917;52.194;9.894;2022-12-17T13:34:34;101498.94;;;-0.87;97.02
13690;BME280;6917;52.194;9.894;2022-12-17T13:36:48;101498.75;;;-0.93;97.74
13690;BME280;6917;52.194;9.894;2022-12-17T13:42:31;101498.94;;;-0.87;94.51
13690;BME280;6917;52.194;9.894;2022-12-17T13:44:59;101507.81;;;-0.80;93.31
13690;BME280;6917;52.194;9.894;2022-12-17T13:47:30;101506.97;;;-0.68;90.61
13690;BME280;6917;52.194;9.894;2022-12-17T13:49:58;101507.34;;;-0.64;89.53
13690;BME280;6917;52.194;9.894;2022-12-17T13:52:26;101510.06;;;-0.77;89.77
13690;BME280;6917;52.194;9.894;2022-12-17T13:54:52;101513.19;;;-0.87;90.40
13690;BME280;6917;52.194;9.894;2022-12-17T13:57:23;101516.28;;;-0.90;90.85
13690;BME280;6917;52.194;9.894;2022-12-17T13:59:57;101513.59;;;-0.90;89.87
13690;BME280;6917;52.194;9.894;2022-12-17T14:02:30;101515.88;;;-0.94;88.94
13690;BME280;6917;52.194;9.894;2022-12-17T14:04:58;101516.72;;;-0.93;87.67
13690;BME280;6917;52.194;9.894;2022-12-17T14:07:25;101515.69;;;-0.99;87.27
13690;BME280;6917;52.194;9.894;2022-12-17T14:09:51;101513.84;;;-1.05;87.42
13690;BME280;6917;52.194;9.894;2022-12-17T14:12:18;101520.44;;;-1.07;87.01
13690;BME280;6917;52.194;9.894;2022-12-17T14:15:02;101521.28;;;-1.13;86.71
13690;BME280;6917;52.194;9.894;2022-12-17T14:17:41;101526.03;;;-1.09;86.58
13690;BME280;6917;52.194;9.894;2022-12-17T14:20:33;101528.28;;;-1.12;86.00
13690;BME280;6917;52.194;9.894;2022-12-17T14:23:22;101533.03;;;-1.14;85.57
13690;BME280;6917;52.194;9.894;2022-12-17T14:25:51;101531.19;;;-1.21;85.60
13690;BME280;6917;52.194;9.894;2022-12-17T14:28:34;101535.53;;;-1.26;85.12
13690;BME280;6917;52.194;9.894;2022-12-17T14:31:22;101528.69;;;-1.35;85.49
13690;BME280;6917;52.194;9.894;2022-12-17T14:34:00;101535.09;;;-1.43;85.67
13690;BME280;6917;52.194;9.894;2022-12-17T14:36:26;101531.78;;;-1.45;86.04
13690;BME280;6917;52.194;9.894;2022-12-17T14:38:54;101543.13;;;-1.56;86.13
13690;BME280;6917;52.194;9.894;2022-12-17T14:41:19;101538.97;;;-1.72;86.42
13690;BME280;6917;52.194;9.894;2022-12-17T14:44:04;101547.41;;;-1.75;87.48
13690;BME280;6917;52.194;9.894;2022-12-17T14:46:31;101541.22;;;-1.82;87.64
13690;BME280;6917;52.194;9.894;2022-12-17T14:48:59;101543.66;;;-1.94;87.52
13690;BME280;6917;52.194;9.894;2022-12-17T14:56:38;101543.56;;;-2.27;88.87
13690;BME280;6917;52.194;9.894;2022-12-17T14:59:04;101544.78;;;-2.29;89.20
13690;BME280;6917;52.194;9.894;2022-12-17T15:01:29;101551.72;;;-2.42;89.58
13690;BME280;6917;52.194;9.894;2022-12-17T15:03:55;101546.72;;;-2.51;89.45
13690;BME280;6917;52.194;9.894;2022-12-17T15:06:21;101550.59;;;-2.60;89.47
13690;BME280;6917;52.194;9.894;2022-12-17T15:08:48;101553.63;;;-2.70;89.83
13690;BME280;6917;52.194;9.894;2022-12-17T15:11:16;101552.72;;;-2.77;90.64
13690;BME280;6917;52.194;9.894;2022-12-17T15:13:42;101550.84;;;-2.83;90.89
13690;BME280;6917;52.194;9.894;2022-12-17T15:16:07;101548.94;;;-2.89;91.02
13690;BME280;6917;52.194;9.894;2022-12-17T15:18:33;101545.81;;;-3.00;91.19
13690;BME280;6917;52.194;9.894;2022-12-17T15:20:58;101556.84;;;-3.09;92.20
13690;BME280;6917;52.194;9.894;2022-12-17T15:23:24;101560.28;;;-3.15;92.10